aviador You're here:

PAPO Decoded Metar

POINT HOPE in AK, USA
Report Time2018-01-17 17:56:00
UTC Time2018-01-17 18:15:26
Flight Rules ifr IFR
Wind330° at 24 Gusting to 29 kt
W.Decomp.*RWY 01: 15.1 kt HW 18.7 kt LCW
W.Rank330° ranks 15
Current wind is above 330° avg. (10.3)
Visibility2816 m
Phenomena:Light Snow
Mist
Clouds:Overcast 005 Hf
Expected CloudBase > 400 ft AGL from Temp-Dew spread
Ceiling500 ft
Temp-9°C (ISA -24)
Dew Point-10°C (93% RH)
AAT-20.7°C
QNH999 hPa
Density Alt-2,448 ft
Elevation20 ft
Report Wrong Elevation
Raw Report
PAPO 171756Z AUTO 33024G29KT 1 3/4SM -SN BR OVC005 M09/M10 A2950
RMK AO2 PK WND 34029/1751 SLP990 P0000 60000 T10891100 11089
21094 56008 FZRANO=

Extra information for PAPO:More info

Metar Taf Metar & Taf Last 4 Metars F.Rules Stats Wind Profile Meteogram Temp Stats Airport Information Weather charts Add Link Nearby VenuesMetar ALERT Operation Metar Decoded Social comments

AIRNAV info for PAPO